Erie, PA

11:27 PM EDT on July 29, 2015 (GMT -0400)
Lake Erie Basin | | Change Station
CLOSE
Current Station
Personal Weather Station
Location: Erie, PA
Elevation: 755 ft
Nearby Weather Stations

Elev 755 ft 42.08 °N, 80.14 °W | Updated 13 minutes ago

Mostly Cloudy
Mostly Cloudy
78.7 °F
Feels Like 81 °F
N
0.0
Wind Variable Wind from SSW
Gusts 0.0 mph

Today
High -- | Low -- °F
--% Chance of Precip.
Yesterday
High -- | Low -- °F
Precip. -- in
6:10 AM 8:43 PM
Waxing Gibbous, 98% visible
Pressure 29.87 in
Visibility 10.0 miles
Clouds Mostly Cloudy 5500 ft
Heat Index 81 °F
Dew Point 69 °F
Humidity 71%
Rainfall 0.00 in
Snow Depth Not available.
UV 0 out of 12
Pollen 7.20 out of 12
Air Quality Not available.
Flu Activity Not available.
METAR KERI 300251Z 24006KT 10SM BKN055 27/18 A2989 RMK AO2 SLP114 T02670183 55003

More Conditions Fewer Conditions

Pressure 29.87 in
Visibility 10.0 miles
Clouds Mostly Cloudy 5500 ft
Heat Index 81 °F
Dew Point 69 °F
Humidity 71%
Rainfall 0.00 in
Snow Depth Not available.
UV 0 out of 12
Pollen 7.20 out of 12
Air Quality Not available.
Flu Activity Not available.
METAR KERI 300251Z 24006KT 10SM BKN055 27/18 A2989 RMK AO2 SLP114 T02670183 55003

More Conditions Fewer Conditions

10-Day Weather Forecast

×

Almanac

Astronomy

Jul. 29, 2015 Rise Set
Actual Time
Civil Twilight
Nautical Twilight
Astronomical Twilight
Moon
Length of Visible Light
Length of Day
Tomorrow will be .
, % of the Moon is Illuminated

Today's Extremes

State Highs State Lows

Community

WunderPhotos

Upload Photos

1,842,288 photos uploaded!

WunderBlogs® & News

Nearby

Air Quality

  Air Quality AQ Index Pollutant
Not available.

Snow Depth

Station Depth Elevation

Earthquake Activity

City Distance Mag. Time & Date
Minimum magnitude displayed is 2.5.

Coastal Water Temperatures

Place Temperature

Stations

Nearby Weather Stations

Station Location Temp. Windchill Dew Point Humidity Wind Precip. Elev Updated Type